AZA8351 EGKK-LIRF
Flight info
| Callsign | AZA8351 |
|---|---|
| Flight time | 1h 54m |
| Altitude | 39000 |
| Route | SFD Y47 BENBO UL612 OGULO DCT OKASI DCT OKEKO DCT MOU DCT MADIV DCT MOKIP DCT TUFTA DCT KOGAS DCT MEDAM DCT NITAM DCT MOGBO DCT ELB DCT ELKAP |
| Aircraft | B77W/H-SDE1E2E3FGHIJ2J3J4J5M1RWXY/LB1D1 |
Departure
| Time | 2026-05-05 15:46 |
|---|---|
| Airport | London Gatwick Airport (EGKK) |
Arrival
| Time | 2026-05-05 17:41 |
|---|---|
| Airport | Rome–Fiumicino Leonardo da Vinci International Airport (LIRF) |
| Time | Latitude | Longitude | Altitude | Speed | Heading |
|---|---|---|---|---|---|
| 2026-05-05 14:57 | 51.15589 | -0.16910 | 210 ft | 0 kts | 167° |
| 2026-05-05 15:22 | 51.15597 | -0.16913 | 210 ft | 2 kts | 166° |
| 2026-05-05 15:22 | 51.15613 | -0.16918 | 222 ft | 2 kts | 168° |
| 2026-05-05 15:22 | 51.15629 | -0.16924 | 216 ft | 2 kts | 169° |
| 2026-05-05 15:23 | 51.15645 | -0.16929 | 221 ft | 2 kts | 175° |
| 2026-05-05 15:23 | 51.15660 | -0.16922 | 223 ft | 2 kts | 249° |
| 2026-05-05 15:23 | 51.15665 | -0.16896 | 223 ft | 2 kts | 257° |
| 2026-05-05 15:23 | 51.15668 | -0.16876 | 218 ft | 1 kts | 257° |
| 2026-05-05 15:24 | 51.15668 | -0.16875 | 218 ft | 0 kts | 257° |
| 2026-05-05 15:31 | 51.15663 | -0.16907 | 221 ft | 6 kts | 257° |
| 2026-05-05 15:31 | 51.15653 | -0.16982 | 216 ft | 11 kts | 257° |
| 2026-05-05 15:32 | 51.15633 | -0.17121 | 219 ft | 13 kts | 257° |
| 2026-05-05 15:32 | 51.15611 | -0.17271 | 213 ft | 14 kts | 256° |
| 2026-05-05 15:32 | 51.15579 | -0.17424 | 218 ft | 15 kts | 233° |
| 2026-05-05 15:32 | 51.15532 | -0.17568 | 220 ft | 15 kts | 255° |
| 2026-05-05 15:33 | 51.15510 | -0.17726 | 215 ft | 15 kts | 258° |
| 2026-05-05 15:33 | 51.15488 | -0.17888 | 220 ft | 15 kts | 258° |
| 2026-05-05 15:33 | 51.15466 | -0.18048 | 215 ft | 15 kts | 258° |
| 2026-05-05 15:33 | 51.15445 | -0.18206 | 217 ft | 13 kts | 257° |
| 2026-05-05 15:34 | 51.15398 | -0.18277 | 216 ft | 10 kts | 186° |
| 2026-05-05 15:34 | 51.15330 | -0.18262 | 211 ft | 10 kts | 165° |
| 2026-05-05 15:34 | 51.15259 | -0.18236 | 215 ft | 10 kts | 168° |
| 2026-05-05 15:34 | 51.15195 | -0.18266 | 218 ft | 10 kts | 236° |
| 2026-05-05 15:35 | 51.15178 | -0.18393 | 215 ft | 16 kts | 259° |
| 2026-05-05 15:35 | 51.15153 | -0.18573 | 214 ft | 17 kts | 257° |
| 2026-05-05 15:35 | 51.15127 | -0.18760 | 219 ft | 17 kts | 258° |
| 2026-05-05 15:35 | 51.15106 | -0.18920 | 215 ft | 10 kts | 258° |
| 2026-05-05 15:36 | 51.15090 | -0.19034 | 217 ft | 11 kts | 258° |
| 2026-05-05 15:36 | 51.15073 | -0.19162 | 218 ft | 14 kts | 257° |
| 2026-05-05 15:36 | 51.15028 | -0.19268 | 216 ft | 12 kts | 200° |
| 2026-05-05 15:36 | 51.14962 | -0.19342 | 216 ft | 17 kts | 242° |
| 2026-05-05 15:37 | 51.14930 | -0.19528 | 218 ft | 18 kts | 257° |
| 2026-05-05 15:37 | 51.14903 | -0.19722 | 219 ft | 18 kts | 258° |
| 2026-05-05 15:37 | 51.14877 | -0.19918 | 216 ft | 18 kts | 258° |
| 2026-05-05 15:37 | 51.14849 | -0.20114 | 213 ft | 18 kts | 257° |
| 2026-05-05 15:38 | 51.14821 | -0.20316 | 212 ft | 19 kts | 257° |
| 2026-05-05 15:38 | 51.14792 | -0.20526 | 215 ft | 19 kts | 257° |
| 2026-05-05 15:38 | 51.14766 | -0.20709 | 216 ft | 16 kts | 258° |
| 2026-05-05 15:38 | 51.14743 | -0.20881 | 216 ft | 16 kts | 257° |
| 2026-05-05 15:39 | 51.14719 | -0.21052 | 216 ft | 16 kts | 258° |
| 2026-05-05 15:39 | 51.14704 | -0.21166 | 212 ft | 7 kts | 258° |
| 2026-05-05 15:39 | 51.14701 | -0.21190 | 213 ft | 0 kts | 258° |
| 2026-05-05 15:44 | 51.14696 | -0.21222 | 219 ft | 7 kts | 258° |
| 2026-05-05 15:44 | 51.14684 | -0.21301 | 218 ft | 7 kts | 248° |
| 2026-05-05 15:44 | 51.14645 | -0.21336 | 219 ft | 6 kts | 186° |
| 2026-05-05 15:44 | 51.14630 | -0.21333 | 216 ft | 2 kts | 170° |
| 2026-05-05 15:45 | 51.14589 | -0.21316 | 218 ft | 8 kts | 162° |
| 2026-05-05 15:45 | 51.14540 | -0.21267 | 219 ft | 12 kts | 129° |
| 2026-05-05 15:45 | 51.14527 | -0.21130 | 219 ft | 9 kts | 83° |
| 2026-05-05 15:45 | 51.14528 | -0.21122 | 218 ft | 0 kts | 81° |
| 2026-05-05 15:46 | 51.14573 | -0.20789 | 218 ft | 90 kts | 77° |
| 2026-05-05 15:46 | 51.14802 | -0.19160 | 430 ft | 195 kts | 77° |
| 2026-05-05 15:46 | 51.15075 | -0.17041 | 2061 ft | 181 kts | 76° |
| 2026-05-05 15:47 | 51.15328 | -0.15184 | 3250 ft | 172 kts | 75° |
| 2026-05-05 15:47 | 51.15603 | -0.13162 | 3647 ft | 199 kts | 76° |
| 2026-05-05 15:47 | 51.15862 | -0.10884 | 3937 ft | 223 kts | 85° |
| 2026-05-05 15:47 | 51.15546 | -0.08410 | 4561 ft | 233 kts | 105° |
| 2026-05-05 15:48 | 51.14845 | -0.06030 | 5145 ft | 244 kts | 126° |
| 2026-05-05 15:48 | 51.13480 | -0.04386 | 5816 ft | 251 kts | 151° |
| 2026-05-05 15:48 | 51.11876 | -0.03218 | 5992 ft | 258 kts | 155° |
| 2026-05-05 15:48 | 51.10191 | -0.02076 | 5950 ft | 270 kts | 155° |
| 2026-05-05 15:49 | 51.08424 | -0.00894 | 5998 ft | 280 kts | 155° |
| 2026-05-05 15:49 | 51.06608 | 0.00317 | 5994 ft | 284 kts | 156° |
| 2026-05-05 15:49 | 51.04801 | 0.01515 | 5997 ft | 282 kts | 155° |
| 2026-05-05 15:49 | 51.02983 | 0.02709 | 6003 ft | 280 kts | 156° |
| 2026-05-05 15:50 | 51.01187 | 0.03886 | 6008 ft | 280 kts | 156° |
| 2026-05-05 15:50 | 50.99380 | 0.05080 | 6005 ft | 282 kts | 155° |
| 2026-05-05 15:50 | 50.97561 | 0.06282 | 5999 ft | 283 kts | 156° |
| 2026-05-05 15:50 | 50.95717 | 0.07317 | 5981 ft | 279 kts | 168° |
| 2026-05-05 15:51 | 50.93799 | 0.07708 | 6008 ft | 278 kts | 174° |
| 2026-05-05 15:51 | 50.91878 | 0.07995 | 5989 ft | 283 kts | 173° |
| 2026-05-05 15:51 | 50.89924 | 0.08367 | 6014 ft | 284 kts | 171° |
| 2026-05-05 15:51 | 50.87971 | 0.08820 | 5999 ft | 283 kts | 170° |
| 2026-05-05 15:52 | 50.86024 | 0.09317 | 6433 ft | 285 kts | 169° |
| 2026-05-05 15:52 | 50.84066 | 0.09856 | 7518 ft | 284 kts | 169° |
| 2026-05-05 15:52 | 50.82114 | 0.10418 | 8540 ft | 287 kts | 169° |
| 2026-05-05 15:52 | 50.80137 | 0.11004 | 9531 ft | 291 kts | 169° |
| 2026-05-05 15:53 | 50.78129 | 0.11595 | 10427 ft | 297 kts | 170° |
| 2026-05-05 15:53 | 50.75988 | 0.11883 | 10823 ft | 324 kts | 180° |
| 2026-05-05 15:53 | 50.73635 | 0.11550 | 11156 ft | 352 kts | 190° |
| 2026-05-05 15:53 | 50.71202 | 0.10710 | 12026 ft | 363 kts | 193° |
| 2026-05-05 15:54 | 50.68722 | 0.09723 | 13151 ft | 370 kts | 193° |
| 2026-05-05 15:54 | 50.66213 | 0.08721 | 14275 ft | 374 kts | 193° |
| 2026-05-05 15:54 | 50.63668 | 0.07739 | 15332 ft | 379 kts | 192° |
| 2026-05-05 15:54 | 50.61086 | 0.06775 | 16390 ft | 385 kts | 192° |
| 2026-05-05 15:55 | 50.58461 | 0.05814 | 17434 ft | 391 kts | 192° |
| 2026-05-05 15:55 | 50.55789 | 0.04845 | 18446 ft | 397 kts | 192° |
| 2026-05-05 15:55 | 50.53083 | 0.03870 | 19345 ft | 402 kts | 192° |
| 2026-05-05 15:55 | 50.50334 | 0.02882 | 20264 ft | 407 kts | 192° |
| 2026-05-05 15:56 | 50.47548 | 0.02023 | 21057 ft | 411 kts | 184° |
| 2026-05-05 15:56 | 50.44666 | 0.02332 | 21771 ft | 419 kts | 165° |
| 2026-05-05 15:56 | 50.41988 | 0.03990 | 22653 ft | 422 kts | 148° |
| 2026-05-05 15:56 | 50.39563 | 0.06564 | 23459 ft | 424 kts | 144° |
| 2026-05-05 15:57 | 50.37120 | 0.09232 | 24160 ft | 430 kts | 144° |
| 2026-05-05 15:57 | 50.34648 | 0.11861 | 25022 ft | 430 kts | 146° |
| 2026-05-05 15:57 | 50.32157 | 0.14458 | 25968 ft | 428 kts | 146° |
| 2026-05-05 15:57 | 50.29669 | 0.17030 | 26848 ft | 429 kts | 146° |
| 2026-05-05 15:58 | 50.27171 | 0.19609 | 27610 ft | 431 kts | 146° |
| 2026-05-05 15:58 | 50.24659 | 0.22205 | 28286 ft | 435 kts | 147° |
| 2026-05-05 15:58 | 50.22120 | 0.24826 | 28941 ft | 439 kts | 147° |
| 2026-05-05 15:58 | 50.19558 | 0.27467 | 29607 ft | 443 kts | 147° |
| 2026-05-05 15:59 | 50.16977 | 0.30121 | 30189 ft | 446 kts | 147° |
| 2026-05-05 15:59 | 50.14372 | 0.32793 | 30708 ft | 449 kts | 147° |
| 2026-05-05 15:59 | 50.11751 | 0.35478 | 31175 ft | 452 kts | 147° |
| 2026-05-05 15:59 | 50.09110 | 0.38181 | 31617 ft | 456 kts | 147° |
| 2026-05-05 16:00 | 50.06493 | 0.40856 | 32124 ft | 456 kts | 147° |
| 2026-05-05 16:00 | 50.03844 | 0.43562 | 32694 ft | 455 kts | 147° |
| 2026-05-05 16:00 | 50.01205 | 0.46254 | 33349 ft | 452 kts | 147° |
| 2026-05-05 16:00 | 49.98579 | 0.48930 | 33929 ft | 451 kts | 147° |
| 2026-05-05 16:01 | 49.95938 | 0.51616 | 34365 ft | 452 kts | 147° |
| 2026-05-05 16:01 | 49.93302 | 0.54293 | 34729 ft | 453 kts | 147° |
| 2026-05-05 16:01 | 49.90661 | 0.56975 | 35085 ft | 454 kts | 147° |
| 2026-05-05 16:01 | 49.88005 | 0.59666 | 35483 ft | 455 kts | 147° |
| 2026-05-05 16:02 | 49.85414 | 0.62356 | 35854 ft | 455 kts | 145° |
| 2026-05-05 16:02 | 49.82915 | 0.65384 | 36203 ft | 457 kts | 142° |
| 2026-05-05 16:02 | 49.80452 | 0.68508 | 36549 ft | 458 kts | 142° |
| 2026-05-05 16:02 | 49.77992 | 0.71641 | 36915 ft | 458 kts | 142° |
| 2026-05-05 16:03 | 49.75526 | 0.74772 | 37266 ft | 459 kts | 142° |
| 2026-05-05 16:03 | 49.73046 | 0.77902 | 37611 ft | 460 kts | 142° |
| 2026-05-05 16:03 | 49.70532 | 0.81063 | 37944 ft | 461 kts | 142° |
| 2026-05-05 16:03 | 49.68070 | 0.84146 | 38253 ft | 462 kts | 142° |
| 2026-05-05 16:04 | 49.65570 | 0.87270 | 38571 ft | 463 kts | 142° |
| 2026-05-05 16:04 | 49.63064 | 0.90396 | 38769 ft | 465 kts | 142° |
| 2026-05-05 16:04 | 49.60529 | 0.93553 | 38804 ft | 469 kts | 142° |
| 2026-05-05 16:05 | 49.55455 | 0.99864 | 38858 ft | 466 kts | 142° |
| 2026-05-05 16:05 | 49.50434 | 1.06094 | 38857 ft | 462 kts | 142° |
| 2026-05-05 16:06 | 49.45438 | 1.12276 | 38858 ft | 461 kts | 142° |
| 2026-05-05 16:06 | 49.40434 | 1.18449 | 38855 ft | 461 kts | 142° |
| 2026-05-05 16:07 | 49.35425 | 1.24611 | 38855 ft | 462 kts | 142° |
| 2026-05-05 16:07 | 49.30403 | 1.30776 | 38858 ft | 463 kts | 142° |
| 2026-05-05 16:08 | 49.25350 | 1.36964 | 38860 ft | 465 kts | 142° |
| 2026-05-05 16:08 | 49.20321 | 1.43107 | 38844 ft | 467 kts | 142° |
| 2026-05-05 16:09 | 49.15242 | 1.49294 | 38850 ft | 467 kts | 142° |
| 2026-05-05 16:09 | 49.10153 | 1.55477 | 38850 ft | 467 kts | 142° |
| 2026-05-05 16:10 | 49.05064 | 1.61643 | 38840 ft | 467 kts | 142° |
| 2026-05-05 16:10 | 48.99976 | 1.67792 | 38829 ft | 465 kts | 143° |
| 2026-05-05 16:11 | 48.94936 | 1.73866 | 38836 ft | 465 kts | 143° |
| 2026-05-05 16:12 | 48.84779 | 1.86059 | 38830 ft | 465 kts | 143° |
| 2026-05-05 16:13 | 48.72061 | 2.01234 | 38834 ft | 466 kts | 143° |
| 2026-05-05 16:13 | 48.66997 | 2.07250 | 38833 ft | 467 kts | 143° |
| 2026-05-05 16:14 | 48.56746 | 2.19470 | 38826 ft | 468 kts | 140° |
| 2026-05-05 16:15 | 48.47534 | 2.33352 | 38820 ft | 470 kts | 136° |
| 2026-05-05 16:16 | 48.38283 | 2.47335 | 38819 ft | 471 kts | 137° |
| 2026-05-05 16:17 | 48.31303 | 2.57778 | 38805 ft | 472 kts | 139° |
| 2026-05-05 16:18 | 48.26081 | 2.63671 | 38804 ft | 468 kts | 150° |
| 2026-05-05 16:18 | 48.23246 | 2.66030 | 38799 ft | 466 kts | 156° |
| 2026-05-05 16:19 | 48.14595 | 2.72665 | 38800 ft | 467 kts | 153° |
| 2026-05-05 16:19 | 48.05995 | 2.79366 | 38805 ft | 464 kts | 159° |
| 2026-05-05 16:20 | 47.94101 | 2.86851 | 38811 ft | 464 kts | 159° |
| 2026-05-05 16:22 | 47.79264 | 2.96232 | 38826 ft | 463 kts | 159° |
| 2026-05-05 16:23 | 47.67380 | 3.03717 | 38818 ft | 463 kts | 159° |
| 2026-05-05 16:23 | 47.58474 | 3.09302 | 38816 ft | 463 kts | 159° |
| 2026-05-05 16:24 | 47.52536 | 3.13013 | 38820 ft | 463 kts | 159° |
| 2026-05-05 16:25 | 47.43614 | 3.18563 | 38819 ft | 464 kts | 160° |
| 2026-05-05 16:25 | 47.34715 | 3.24081 | 38826 ft | 464 kts | 160° |
| 2026-05-05 16:26 | 47.22805 | 3.31436 | 38838 ft | 464 kts | 160° |
| 2026-05-05 16:27 | 47.16850 | 3.35100 | 38844 ft | 464 kts | 160° |
| 2026-05-05 16:27 | 47.10894 | 3.38756 | 38858 ft | 464 kts | 160° |
| 2026-05-05 16:28 | 47.04967 | 3.42385 | 38839 ft | 464 kts | 160° |
| 2026-05-05 16:28 | 46.99004 | 3.46027 | 38856 ft | 464 kts | 160° |
| 2026-05-05 16:29 | 46.93047 | 3.49658 | 38847 ft | 464 kts | 160° |
| 2026-05-05 16:29 | 46.88084 | 3.52675 | 38849 ft | 464 kts | 160° |
| 2026-05-05 16:30 | 46.82122 | 3.56294 | 38843 ft | 464 kts | 160° |
| 2026-05-05 16:30 | 46.76156 | 3.59907 | 38843 ft | 463 kts | 159° |
| 2026-05-05 16:31 | 46.73354 | 3.62241 | 38838 ft | 468 kts | 143° |
| 2026-05-05 16:31 | 46.71093 | 3.65683 | 38849 ft | 474 kts | 129° |
| 2026-05-05 16:31 | 46.69452 | 3.69865 | 38845 ft | 481 kts | 114° |
| 2026-05-05 16:31 | 46.68546 | 3.74572 | 38864 ft | 484 kts | 105° |
| 2026-05-05 16:32 | 46.67099 | 3.84186 | 38857 ft | 487 kts | 106° |
| 2026-05-05 16:32 | 46.65477 | 3.93782 | 38851 ft | 489 kts | 107° |
| 2026-05-05 16:33 | 46.63803 | 4.03380 | 38857 ft | 490 kts | 107° |
| 2026-05-05 16:33 | 46.62128 | 4.13013 | 38855 ft | 491 kts | 107° |
| 2026-05-05 16:34 | 46.60460 | 4.22581 | 38852 ft | 491 kts | 107° |
| 2026-05-05 16:34 | 46.58771 | 4.32213 | 38851 ft | 490 kts | 108° |
| 2026-05-05 16:35 | 46.57082 | 4.41794 | 38854 ft | 489 kts | 108° |
| 2026-05-05 16:35 | 46.55388 | 4.51346 | 38851 ft | 488 kts | 108° |
| 2026-05-05 16:36 | 46.53686 | 4.60891 | 38858 ft | 487 kts | 108° |
| 2026-05-05 16:36 | 46.51976 | 4.70429 | 38860 ft | 487 kts | 108° |
| 2026-05-05 16:37 | 46.50271 | 4.79892 | 38875 ft | 488 kts | 108° |
| 2026-05-05 16:37 | 46.48544 | 4.89428 | 38861 ft | 489 kts | 108° |
| 2026-05-05 16:38 | 46.46812 | 4.98949 | 38880 ft | 490 kts | 108° |
| 2026-05-05 16:38 | 46.45057 | 5.08545 | 38878 ft | 491 kts | 108° |
| 2026-05-05 16:39 | 46.43285 | 5.18123 | 38883 ft | 492 kts | 109° |
| 2026-05-05 16:39 | 46.41496 | 5.27716 | 38883 ft | 493 kts | 109° |
| 2026-05-05 16:40 | 46.39601 | 5.37246 | 38884 ft | 490 kts | 115° |
| 2026-05-05 16:40 | 46.36507 | 5.45840 | 38893 ft | 482 kts | 128° |
| 2026-05-05 16:41 | 46.32326 | 5.53324 | 38887 ft | 477 kts | 135° |
| 2026-05-05 16:41 | 46.27955 | 5.60560 | 38902 ft | 477 kts | 136° |
| 2026-05-05 16:42 | 46.23601 | 5.67822 | 38898 ft | 478 kts | 135° |
| 2026-05-05 16:42 | 46.19272 | 5.75100 | 38891 ft | 478 kts | 135° |
| 2026-05-05 16:43 | 46.14946 | 5.82377 | 38903 ft | 478 kts | 135° |
| 2026-05-05 16:43 | 46.10612 | 5.89645 | 38898 ft | 478 kts | 135° |
| 2026-05-05 16:44 | 46.06301 | 5.96851 | 38880 ft | 477 kts | 135° |
| 2026-05-05 16:44 | 46.01956 | 6.04095 | 38876 ft | 477 kts | 136° |
| 2026-05-05 16:45 | 45.97608 | 6.11324 | 38873 ft | 477 kts | 136° |
| 2026-05-05 16:45 | 45.93254 | 6.18545 | 38885 ft | 477 kts | 136° |
| 2026-05-05 16:46 | 45.88923 | 6.25709 | 38894 ft | 479 kts | 136° |
| 2026-05-05 16:46 | 45.84548 | 6.32930 | 38871 ft | 479 kts | 136° |
| 2026-05-05 16:47 | 45.79973 | 6.39806 | 38887 ft | 474 kts | 144° |
| 2026-05-05 16:47 | 45.74744 | 6.45419 | 38899 ft | 470 kts | 150° |
| 2026-05-05 16:48 | 45.69368 | 6.50785 | 38883 ft | 470 kts | 150° |
| 2026-05-05 16:48 | 45.64013 | 6.56168 | 38890 ft | 470 kts | 150° |
| 2026-05-05 16:49 | 45.58703 | 6.61544 | 38909 ft | 470 kts | 150° |
| 2026-05-05 16:49 | 45.53342 | 6.66965 | 38889 ft | 471 kts | 150° |
| 2026-05-05 16:50 | 45.47975 | 6.72377 | 38909 ft | 472 kts | 150° |
| 2026-05-05 16:50 | 45.42637 | 6.77744 | 38900 ft | 473 kts | 150° |
| 2026-05-05 16:51 | 45.37247 | 6.83152 | 38917 ft | 475 kts | 150° |
| 2026-05-05 16:51 | 45.31836 | 6.88571 | 38919 ft | 475 kts | 150° |
| 2026-05-05 16:52 | 45.26461 | 6.94055 | 38917 ft | 477 kts | 146° |
| 2026-05-05 16:52 | 45.21584 | 7.00513 | 38945 ft | 481 kts | 140° |
| 2026-05-05 16:53 | 45.16843 | 7.07204 | 38961 ft | 481 kts | 140° |
| 2026-05-05 16:53 | 45.12884 | 7.12668 | 38952 ft | 480 kts | 141° |
| 2026-05-05 16:54 | 45.09775 | 7.17399 | 38956 ft | 484 kts | 134° |
| 2026-05-05 16:54 | 45.05861 | 7.25213 | 38960 ft | 487 kts | 129° |
| 2026-05-05 16:55 | 45.02039 | 7.33096 | 38951 ft | 485 kts | 129° |
| 2026-05-05 16:55 | 44.98087 | 7.40802 | 38963 ft | 482 kts | 134° |
| 2026-05-05 16:56 | 44.93484 | 7.47586 | 38971 ft | 477 kts | 141° |
| 2026-05-05 16:56 | 44.88722 | 7.54132 | 38970 ft | 478 kts | 141° |
| 2026-05-05 16:57 | 44.83960 | 7.60703 | 38953 ft | 480 kts | 141° |
| 2026-05-05 16:57 | 44.79222 | 7.67277 | 38953 ft | 481 kts | 140° |
| 2026-05-05 16:58 | 44.74452 | 7.73901 | 38953 ft | 482 kts | 140° |
| 2026-05-05 16:58 | 44.69660 | 7.80541 | 38952 ft | 484 kts | 140° |
| 2026-05-05 16:59 | 44.64858 | 7.87176 | 38946 ft | 484 kts | 141° |
| 2026-05-05 16:59 | 44.60044 | 7.93810 | 38954 ft | 485 kts | 141° |
| 2026-05-05 17:00 | 44.55227 | 8.00430 | 38944 ft | 485 kts | 141° |
| 2026-05-05 17:00 | 44.50397 | 8.07052 | 38937 ft | 486 kts | 141° |
| 2026-05-05 17:01 | 44.45567 | 8.13661 | 38931 ft | 485 kts | 141° |
| 2026-05-05 17:01 | 44.40735 | 8.20253 | 38933 ft | 485 kts | 141° |
| 2026-05-05 17:02 | 44.35919 | 8.26808 | 38927 ft | 485 kts | 141° |
| 2026-05-05 17:02 | 44.31483 | 8.32832 | 38943 ft | 485 kts | 141° |
| 2026-05-05 17:03 | 44.26636 | 8.39399 | 38949 ft | 486 kts | 141° |
| 2026-05-05 17:03 | 44.21775 | 8.45967 | 38941 ft | 487 kts | 141° |
| 2026-05-05 17:04 | 44.16906 | 8.52532 | 38938 ft | 487 kts | 142° |
| 2026-05-05 17:04 | 44.12037 | 8.59082 | 38935 ft | 487 kts | 142° |
| 2026-05-05 17:05 | 44.07161 | 8.65624 | 38939 ft | 487 kts | 142° |
| 2026-05-05 17:05 | 44.02267 | 8.72174 | 38936 ft | 488 kts | 142° |
| 2026-05-05 17:06 | 43.97364 | 8.78720 | 38936 ft | 489 kts | 142° |
| 2026-05-05 17:06 | 43.92451 | 8.85265 | 38936 ft | 490 kts | 142° |
| 2026-05-05 17:07 | 43.87558 | 8.91767 | 38940 ft | 491 kts | 142° |
| 2026-05-05 17:07 | 43.82620 | 8.98313 | 38943 ft | 491 kts | 142° |
| 2026-05-05 17:08 | 43.77675 | 9.04853 | 38945 ft | 492 kts | 142° |
| 2026-05-05 17:08 | 43.72719 | 9.11391 | 38943 ft | 492 kts | 142° |
| 2026-05-05 17:09 | 43.67761 | 9.17917 | 38957 ft | 492 kts | 142° |
| 2026-05-05 17:09 | 43.62790 | 9.24444 | 38940 ft | 492 kts | 142° |
| 2026-05-05 17:10 | 43.57823 | 9.30950 | 38946 ft | 492 kts | 142° |
| 2026-05-05 17:10 | 43.52880 | 9.37409 | 38942 ft | 492 kts | 142° |
| 2026-05-05 17:11 | 43.47907 | 9.43892 | 38956 ft | 493 kts | 142° |
| 2026-05-05 17:11 | 43.42917 | 9.50380 | 38953 ft | 493 kts | 142° |
| 2026-05-05 17:12 | 43.37918 | 9.56867 | 38957 ft | 493 kts | 142° |
| 2026-05-05 17:12 | 43.32915 | 9.63341 | 38952 ft | 494 kts | 142° |
| 2026-05-05 17:13 | 43.27912 | 9.69801 | 38962 ft | 494 kts | 142° |
| 2026-05-05 17:13 | 43.22924 | 9.76227 | 38956 ft | 495 kts | 142° |
| 2026-05-05 17:14 | 43.17895 | 9.82690 | 38963 ft | 495 kts | 142° |
| 2026-05-05 17:14 | 43.12866 | 9.89138 | 38958 ft | 496 kts | 142° |
| 2026-05-05 17:15 | 43.07848 | 9.95561 | 38815 ft | 487 kts | 142° |
| 2026-05-05 17:15 | 43.05388 | 9.98707 | 38380 ft | 482 kts | 142° |
| 2026-05-05 17:15 | 43.03317 | 10.01351 | 37957 ft | 479 kts | 142° |
| 2026-05-05 17:16 | 43.00891 | 10.04443 | 37443 ft | 476 kts | 143° |
| 2026-05-05 17:16 | 42.98477 | 10.07513 | 36968 ft | 472 kts | 143° |
| 2026-05-05 17:16 | 42.96884 | 10.09539 | 36642 ft | 470 kts | 143° |
| 2026-05-05 17:16 | 42.93731 | 10.13543 | 36055 ft | 465 kts | 143° |
| 2026-05-05 17:17 | 42.91370 | 10.16537 | 35608 ft | 462 kts | 143° |
| 2026-05-05 17:17 | 42.89027 | 10.19506 | 35156 ft | 459 kts | 144° |
| 2026-05-05 17:17 | 42.86691 | 10.22462 | 34732 ft | 455 kts | 144° |
| 2026-05-05 17:17 | 42.85122 | 10.24446 | 34444 ft | 453 kts | 144° |
| 2026-05-05 17:18 | 42.82851 | 10.27316 | 34034 ft | 451 kts | 144° |
| 2026-05-05 17:18 | 42.80557 | 10.30210 | 33539 ft | 448 kts | 144° |
| 2026-05-05 17:18 | 42.78278 | 10.33085 | 33051 ft | 445 kts | 144° |
| 2026-05-05 17:18 | 42.76027 | 10.35960 | 32553 ft | 443 kts | 140° |
| 2026-05-05 17:19 | 42.74171 | 10.39365 | 31999 ft | 455 kts | 123° |
| 2026-05-05 17:19 | 42.72992 | 10.43383 | 31525 ft | 462 kts | 107° |
| 2026-05-05 17:19 | 42.72584 | 10.47693 | 31058 ft | 456 kts | 94° |
| 2026-05-05 17:19 | 42.72508 | 10.51990 | 30351 ft | 452 kts | 92° |
| 2026-05-05 17:20 | 42.72421 | 10.56254 | 29475 ft | 450 kts | 94° |
| 2026-05-05 17:20 | 42.72277 | 10.60476 | 28727 ft | 443 kts | 95° |
| 2026-05-05 17:20 | 42.71811 | 10.64550 | 28204 ft | 431 kts | 111° |
| 2026-05-05 17:20 | 42.70557 | 10.68162 | 27799 ft | 417 kts | 127° |
| 2026-05-05 17:21 | 42.69009 | 10.71468 | 27395 ft | 413 kts | 127° |
| 2026-05-05 17:21 | 42.67458 | 10.74743 | 26985 ft | 410 kts | 127° |
| 2026-05-05 17:21 | 42.65927 | 10.77991 | 26586 ft | 407 kts | 126° |
| 2026-05-05 17:22 | 42.62922 | 10.84450 | 25789 ft | 402 kts | 126° |
| 2026-05-05 17:22 | 42.61442 | 10.87659 | 25411 ft | 399 kts | 125° |
| 2026-05-05 17:22 | 42.59973 | 10.90848 | 25018 ft | 397 kts | 125° |
| 2026-05-05 17:22 | 42.58514 | 10.94015 | 24622 ft | 395 kts | 125° |
| 2026-05-05 17:23 | 42.57064 | 10.97163 | 24221 ft | 393 kts | 124° |
| 2026-05-05 17:23 | 42.55636 | 11.00260 | 23873 ft | 380 kts | 124° |
| 2026-05-05 17:23 | 42.54256 | 11.03250 | 23403 ft | 369 kts | 124° |
| 2026-05-05 17:23 | 42.52908 | 11.06167 | 22720 ft | 362 kts | 124° |
| 2026-05-05 17:24 | 42.51570 | 11.09056 | 21949 ft | 362 kts | 124° |
| 2026-05-05 17:24 | 42.50204 | 11.11990 | 21549 ft | 369 kts | 124° |
| 2026-05-05 17:24 | 42.48811 | 11.14987 | 21465 ft | 373 kts | 124° |
| 2026-05-05 17:24 | 42.47490 | 11.17846 | 20976 ft | 354 kts | 125° |
| 2026-05-05 17:25 | 42.46193 | 11.20646 | 20140 ft | 348 kts | 125° |
| 2026-05-05 17:25 | 42.45331 | 11.22521 | 19583 ft | 345 kts | 123° |
| 2026-05-05 17:25 | 42.44099 | 11.26318 | 19148 ft | 321 kts | 112° |
| 2026-05-05 17:25 | 42.43517 | 11.29213 | 18478 ft | 321 kts | 102° |
| 2026-05-05 17:26 | 42.43178 | 11.32194 | 18226 ft | 321 kts | 100° |
| 2026-05-05 17:26 | 42.42878 | 11.35265 | 17803 ft | 338 kts | 100° |
| 2026-05-05 17:26 | 42.42558 | 11.38474 | 17400 ft | 347 kts | 100° |
| 2026-05-05 17:26 | 42.42220 | 11.41722 | 16983 ft | 348 kts | 101° |
| 2026-05-05 17:27 | 42.41870 | 11.44958 | 16582 ft | 347 kts | 101° |
| 2026-05-05 17:27 | 42.41510 | 11.48185 | 16194 ft | 346 kts | 101° |
| 2026-05-05 17:27 | 42.41147 | 11.51394 | 15818 ft | 345 kts | 101° |
| 2026-05-05 17:27 | 42.40783 | 11.54594 | 15434 ft | 343 kts | 101° |
| 2026-05-05 17:28 | 42.40309 | 11.57726 | 15055 ft | 336 kts | 113° |
| 2026-05-05 17:28 | 42.39151 | 11.60413 | 14555 ft | 328 kts | 133° |
| 2026-05-05 17:28 | 42.37672 | 11.62780 | 14072 ft | 331 kts | 134° |
| 2026-05-05 17:28 | 42.36169 | 11.65152 | 13524 ft | 335 kts | 134° |
| 2026-05-05 17:29 | 42.34647 | 11.67560 | 13075 ft | 335 kts | 134° |
| 2026-05-05 17:29 | 42.33156 | 11.69931 | 12711 ft | 333 kts | 134° |
| 2026-05-05 17:29 | 42.31677 | 11.72294 | 12508 ft | 326 kts | 134° |
| 2026-05-05 17:29 | 42.30236 | 11.74603 | 12344 ft | 318 kts | 134° |
| 2026-05-05 17:30 | 42.28829 | 11.76862 | 12150 ft | 313 kts | 134° |
| 2026-05-05 17:30 | 42.27376 | 11.79182 | 11978 ft | 328 kts | 133° |
| 2026-05-05 17:30 | 42.25893 | 11.81554 | 11134 ft | 333 kts | 133° |
| 2026-05-05 17:30 | 42.24399 | 11.83948 | 10088 ft | 333 kts | 133° |
| 2026-05-05 17:31 | 42.22925 | 11.86313 | 9257 ft | 321 kts | 133° |
| 2026-05-05 17:31 | 42.21533 | 11.88549 | 8753 ft | 301 kts | 133° |
| 2026-05-05 17:31 | 42.20227 | 11.90645 | 8253 ft | 285 kts | 133° |
| 2026-05-05 17:31 | 42.18976 | 11.92645 | 7681 ft | 274 kts | 133° |
| 2026-05-05 17:32 | 42.17762 | 11.94582 | 7057 ft | 268 kts | 134° |
| 2026-05-05 17:32 | 42.16575 | 11.96475 | 6606 ft | 261 kts | 134° |
| 2026-05-05 17:32 | 42.15417 | 11.98323 | 6308 ft | 261 kts | 134° |
| 2026-05-05 17:32 | 42.14257 | 12.00169 | 6059 ft | 256 kts | 134° |
| 2026-05-05 17:33 | 42.13088 | 12.02026 | 5402 ft | 260 kts | 134° |
| 2026-05-05 17:33 | 42.11929 | 12.03872 | 4947 ft | 255 kts | 133° |
| 2026-05-05 17:33 | 42.10765 | 12.05636 | 4523 ft | 249 kts | 136° |
| 2026-05-05 17:33 | 42.09602 | 12.07325 | 4137 ft | 244 kts | 136° |
| 2026-05-05 17:34 | 42.08444 | 12.09005 | 3759 ft | 246 kts | 136° |
| 2026-05-05 17:34 | 42.07270 | 12.10711 | 3374 ft | 250 kts | 135° |
| 2026-05-05 17:34 | 42.06089 | 12.12433 | 3047 ft | 249 kts | 135° |
| 2026-05-05 17:34 | 42.04946 | 12.14106 | 3015 ft | 236 kts | 135° |
| 2026-05-05 17:35 | 42.03865 | 12.15691 | 3008 ft | 223 kts | 135° |
| 2026-05-05 17:35 | 42.02862 | 12.17160 | 3036 ft | 208 kts | 136° |
| 2026-05-05 17:35 | 42.01872 | 12.18434 | 3013 ft | 185 kts | 152° |
| 2026-05-05 17:35 | 42.00747 | 12.19131 | 3043 ft | 178 kts | 158° |
| 2026-05-05 17:36 | 41.99616 | 12.19759 | 3045 ft | 173 kts | 161° |
| 2026-05-05 17:36 | 41.98487 | 12.20289 | 2897 ft | 175 kts | 163° |
| 2026-05-05 17:36 | 41.97337 | 12.20790 | 2676 ft | 169 kts | 163° |
| 2026-05-05 17:36 | 41.96263 | 12.21243 | 2447 ft | 155 kts | 164° |
| 2026-05-05 17:37 | 41.95278 | 12.21659 | 2249 ft | 141 kts | 163° |
| 2026-05-05 17:37 | 41.94379 | 12.22037 | 2093 ft | 132 kts | 164° |
| 2026-05-05 17:37 | 41.93510 | 12.22404 | 1927 ft | 130 kts | 164° |
| 2026-05-05 17:37 | 41.92662 | 12.22762 | 1739 ft | 128 kts | 164° |
| 2026-05-05 17:38 | 41.91806 | 12.23122 | 1557 ft | 128 kts | 164° |
| 2026-05-05 17:38 | 41.91036 | 12.23445 | 1414 ft | 129 kts | 164° |
| 2026-05-05 17:38 | 41.90192 | 12.23799 | 1235 ft | 130 kts | 163° |
| 2026-05-05 17:38 | 41.89330 | 12.24163 | 1063 ft | 132 kts | 163° |
| 2026-05-05 17:39 | 41.88446 | 12.24534 | 841 ft | 134 kts | 164° |
| 2026-05-05 17:39 | 41.87563 | 12.24906 | 669 ft | 132 kts | 163° |
| 2026-05-05 17:39 | 41.86690 | 12.25271 | 473 ft | 130 kts | 163° |
| 2026-05-05 17:39 | 41.85821 | 12.25637 | 304 ft | 134 kts | 163° |
| 2026-05-05 17:40 | 41.84930 | 12.26009 | 176 ft | 133 kts | 161° |
| 2026-05-05 17:40 | 41.84045 | 12.26368 | 44 ft | 129 kts | 161° |
| 2026-05-05 17:40 | 41.83270 | 12.26706 | 28 ft | 103 kts | 161° |
| 2026-05-05 17:40 | 41.82727 | 12.26936 | 29 ft | 61 kts | 162° |
| 2026-05-05 17:41 | 41.82441 | 12.27055 | 24 ft | 43 kts | 161° |
| 2026-05-05 17:41 | 41.82275 | 12.27119 | 19 ft | 11 kts | 168° |
| 2026-05-05 17:41 | 41.82130 | 12.27140 | 18 ft | 23 kts | 179° |
| 2026-05-05 17:41 | 41.81989 | 12.27118 | 17 ft | 17 kts | 191° |
| 2026-05-05 17:42 | 41.81925 | 12.27099 | 20 ft | 8 kts | 192° |
| 2026-05-05 17:42 | 41.81871 | 12.27083 | 24 ft | 8 kts | 192° |
| 2026-05-05 17:42 | 41.81818 | 12.27068 | 24 ft | 8 kts | 191° |
| 2026-05-05 17:42 | 41.81764 | 12.27054 | 23 ft | 8 kts | 190° |
| 2026-05-05 17:43 | 41.81709 | 12.27052 | 28 ft | 8 kts | 176° |
| 2026-05-05 17:43 | 41.81654 | 12.27061 | 28 ft | 8 kts | 169° |
| 2026-05-05 17:43 | 41.81600 | 12.27080 | 28 ft | 8 kts | 163° |
| 2026-05-05 17:43 | 41.81546 | 12.27104 | 27 ft | 8 kts | 162° |
| 2026-05-05 17:44 | 41.81492 | 12.27127 | 26 ft | 8 kts | 162° |
| 2026-05-05 17:44 | 41.81401 | 12.27166 | 28 ft | 21 kts | 162° |
| 2026-05-05 17:44 | 41.81237 | 12.27234 | 23 ft | 20 kts | 163° |
| 2026-05-05 17:44 | 41.81108 | 12.27288 | 20 ft | 16 kts | 163° |
| 2026-05-05 17:45 | 41.80996 | 12.27333 | 19 ft | 17 kts | 166° |
| 2026-05-05 17:45 | 41.80881 | 12.27344 | 20 ft | 16 kts | 188° |
| 2026-05-05 17:45 | 41.80777 | 12.27321 | 19 ft | 15 kts | 189° |
| 2026-05-05 17:45 | 41.80683 | 12.27265 | 20 ft | 15 kts | 224° |
| 2026-05-05 17:46 | 41.80631 | 12.27139 | 19 ft | 16 kts | 249° |
| 2026-05-05 17:46 | 41.80591 | 12.26996 | 19 ft | 16 kts | 249° |
| 2026-05-05 17:46 | 41.80551 | 12.26853 | 21 ft | 16 kts | 249° |
| 2026-05-05 17:46 | 41.80508 | 12.26703 | 19 ft | 18 kts | 248° |
| 2026-05-05 17:47 | 41.80461 | 12.26551 | 20 ft | 18 kts | 247° |
| 2026-05-05 17:47 | 41.80429 | 12.26409 | 19 ft | 13 kts | 251° |
| 2026-05-05 17:47 | 41.80397 | 12.26287 | 19 ft | 14 kts | 250° |
| 2026-05-05 17:47 | 41.80361 | 12.26161 | 20 ft | 15 kts | 249° |
| 2026-05-05 17:48 | 41.80320 | 12.26012 | 19 ft | 18 kts | 249° |
| 2026-05-05 17:48 | 41.80275 | 12.25850 | 20 ft | 18 kts | 249° |
| 2026-05-05 17:48 | 41.80231 | 12.25689 | 21 ft | 18 kts | 250° |
| 2026-05-05 17:48 | 41.80186 | 12.25531 | 27 ft | 18 kts | 249° |
| 2026-05-05 17:49 | 41.80152 | 12.25408 | 28 ft | 5 kts | 250° |
| 2026-05-05 17:49 | 41.80138 | 12.25357 | 27 ft | 7 kts | 249° |
| 2026-05-05 17:49 | 41.80118 | 12.25285 | 26 ft | 10 kts | 250° |
| 2026-05-05 17:49 | 41.80097 | 12.25191 | 25 ft | 11 kts | 258° |
| 2026-05-05 17:50 | 41.80101 | 12.25054 | 28 ft | 15 kts | 278° |
| 2026-05-05 17:50 | 41.80111 | 12.24927 | 27 ft | 14 kts | 269° |
| 2026-05-05 17:50 | 41.80084 | 12.24809 | 23 ft | 14 kts | 229° |
| 2026-05-05 17:50 | 41.79996 | 12.24810 | 23 ft | 8 kts | 160° |
| 2026-05-05 17:51 | 41.79942 | 12.24838 | 24 ft | 9 kts | 158° |
| 2026-05-05 17:51 | 41.79884 | 12.24869 | 24 ft | 9 kts | 158° |
| 2026-05-05 17:51 | 41.79825 | 12.24898 | 24 ft | 8 kts | 161° |
| 2026-05-05 17:51 | 41.79787 | 12.24917 | 24 ft | 6 kts | 160° |
| 2026-05-05 17:52 | 41.79746 | 12.24940 | 25 ft | 7 kts | 155° |
| 2026-05-05 17:52 | 41.79708 | 12.24926 | 25 ft | 5 kts | 227° |
| 2026-05-05 17:52 | 41.79701 | 12.24907 | 21 ft | 0 kts | 251° |
| 2026-05-05 17:52 | 41.79699 | 12.24897 | 21 ft | 2 kts | 253° |
| 2026-05-05 17:53 | 41.79693 | 12.24874 | 22 ft | 2 kts | 251° |
| 2026-05-05 17:53 | 41.79692 | 12.24870 | 23 ft | 0 kts | 251° |